sensor_id;sensor_type;location;lat;lon;timestamp;temperature;humidity
4602;DHT22;2313;48.552;9.370;2023-08-06T00:00:24;14.60;99.90
4602;DHT22;2313;48.552;9.370;2023-08-06T00:02:50;14.50;99.90
4602;DHT22;2313;48.552;9.370;2023-08-06T00:05:16;14.60;99.90
4602;DHT22;2313;48.552;9.370;2023-08-06T00:07:44;14.50;99.90
4602;DHT22;2313;48.552;9.370;2023-08-06T00:10:10;14.50;99.90
4602;DHT22;2313;48.552;9.370;2023-08-06T00:12:36;14.50;99.90
4602;DHT22;2313;48.552;9.370;2023-08-06T00:15:02;14.60;99.90
4602;DHT22;2313;48.552;9.370;2023-08-06T00:17:27;14.50;99.90
4602;DHT22;2313;48.552;9.370;2023-08-06T00:19:53;14.50;99.90
4602;DHT22;2313;48.552;9.370;2023-08-06T00:22:18;14.50;99.90
4602;DHT22;2313;48.552;9.370;2023-08-06T00:24:44;14.30;99.90
4602;DHT22;2313;48.552;9.370;2023-08-06T00:27:10;14.50;99.90
4602;DHT22;2313;48.552;9.370;2023-08-06T00:29:35;14.40;99.90
4602;DHT22;2313;48.552;9.370;2023-08-06T00:32:01;14.40;99.90
4602;DHT22;2313;48.552;9.370;2023-08-06T00:34:26;14.40;99.90
4602;DHT22;2313;48.552;9.370;2023-08-06T00:36:52;14.30;99.90
4602;DHT22;2313;48.552;9.370;2023-08-06T00:39:19;14.30;99.90
4602;DHT22;2313;48.552;9.370;2023-08-06T00:41:44;14.30;99.90
4602;DHT22;2313;48.552;9.370;2023-08-06T00:44:10;14.20;99.90
4602;DHT22;2313;48.552;9.370;2023-08-06T00:46:35;14.20;99.90
4602;DHT22;2313;48.552;9.370;2023-08-06T00:49:01;14.20;99.90
4602;DHT22;2313;48.552;9.370;2023-08-06T00:51:27;14.20;99.90
4602;DHT22;2313;48.552;9.370;2023-08-06T00:53:53;14.20;99.90
4602;DHT22;2313;48.552;9.370;2023-08-06T00:56:20;14.20;99.90
4602;DHT22;2313;48.552;9.370;2023-08-06T00:58:46;14.30;99.90
4602;DHT22;2313;48.552;9.370;2023-08-06T01:01:12;14.40;99.90
4602;DHT22;2313;48.552;9.370;2023-08-06T01:03:38;14.50;99.90
4602;DHT22;2313;48.552;9.370;2023-08-06T01:06:04;14.60;99.90
4602;DHT22;2313;48.552;9.370;2023-08-06T01:09:14;14.70;99.90
4602;DHT22;2313;48.552;9.370;2023-08-06T01:11:40;14.60;99.90
4602;DHT22;2313;48.552;9.370;2023-08-06T01:14:26;14.60;99.90
4602;DHT22;2313;48.552;9.370;2023-08-06T01:16:54;14.50;99.90
4602;DHT22;2313;48.552;9.370;2023-08-06T01:19:21;14.50;99.90
4602;DHT22;2313;48.552;9.370;2023-08-06T01:21:47;14.40;99.90
4602;DHT22;2313;48.552;9.370;2023-08-06T01:24:12;14.30;99.90
4602;DHT22;2313;48.552;9.370;2023-08-06T01:29:25;14.40;99.90
4602;DHT22;2313;48.552;9.370;2023-08-06T01:31:54;14.40;99.90
4602;DHT22;2313;48.552;9.370;2023-08-06T01:34:22;14.40;99.90
4602;DHT22;2313;48.552;9.370;2023-08-06T01:36:49;14.50;99.90
4602;DHT22;2313;48.552;9.370;2023-08-06T01:39:15;14.50;99.90
4602;DHT22;2313;48.552;9.370;2023-08-06T01:41:41;14.50;99.90
4602;DHT22;2313;48.552;9.370;2023-08-06T01:44:06;14.40;99.90
4602;DHT22;2313;48.552;9.370;2023-08-06T01:46:32;14.50;99.90
4602;DHT22;2313;48.552;9.370;2023-08-06T01:48:57;14.50;99.90
4602;DHT22;2313;48.552;9.370;2023-08-06T01:51:23;14.40;99.90
4602;DHT22;2313;48.552;9.370;2023-08-06T01:53:49;14.50;99.90
4602;DHT22;2313;48.552;9.370;2023-08-06T01:56:14;14.50;99.90
4602;DHT22;2313;48.552;9.370;2023-08-06T01:58:40;14.60;99.90
4602;DHT22;2313;48.552;9.370;2023-08-06T02:01:05;14.60;99.90
4602;DHT22;2313;48.552;9.370;2023-08-06T02:03:31;14.60;99.90
4602;DHT22;2313;48.552;9.370;2023-08-06T02:05:57;14.40;99.90
4602;DHT22;2313;48.552;9.370;2023-08-06T02:08:23;14.30;99.90
4602;DHT22;2313;48.552;9.370;2023-08-06T02:10:48;14.20;99.90
4602;DHT22;2313;48.552;9.370;2023-08-06T02:13:14;14.20;99.90
4602;DHT22;2313;48.552;9.370;2023-08-06T02:15:44;14.20;99.90
4602;DHT22;2313;48.552;9.370;2023-08-06T02:18:09;14.00;99.90
4602;DHT22;2313;48.552;9.370;2023-08-06T02:20:35;14.00;99.90
4602;DHT22;2313;48.552;9.370;2023-08-06T02:23:01;13.90;99.90
4602;DHT22;2313;48.552;9.370;2023-08-06T02:25:26;13.90;99.90
4602;DHT22;2313;48.552;9.370;2023-08-06T02:27:52;13.70;99.90
4602;DHT22;2313;48.552;9.370;2023-08-06T02:30:18;13.70;99.90
4602;DHT22;2313;48.552;9.370;2023-08-06T02:32:44;13.80;99.90
4602;DHT22;2313;48.552;9.370;2023-08-06T02:35:09;13.80;99.90
4602;DHT22;2313;48.552;9.370;2023-08-06T02:37:35;13.90;99.90
4602;DHT22;2313;48.552;9.370;2023-08-06T02:40:01;13.90;99.90
4602;DHT22;2313;48.552;9.370;2023-08-06T02:42:26;14.00;99.90
4602;DHT22;2313;48.552;9.370;2023-08-06T02:44:52;14.00;99.90
4602;DHT22;2313;48.552;9.370;2023-08-06T02:47:20;14.10;99.90
4602;DHT22;2313;48.552;9.370;2023-08-06T02:49:46;14.00;99.90
4602;DHT22;2313;48.552;9.370;2023-08-06T02:52:12;14.00;99.90
4602;DHT22;2313;48.552;9.370;2023-08-06T02:54:37;14.00;99.90
4602;DHT22;2313;48.552;9.370;2023-08-06T02:57:03;14.10;99.90
4602;DHT22;2313;48.552;9.370;2023-08-06T02:59:29;14.00;99.90
4602;DHT22;2313;48.552;9.370;2023-08-06T03:01:54;14.00;99.90
4602;DHT22;2313;48.552;9.370;2023-08-06T03:04:20;14.10;99.90
4602;DHT22;2313;48.552;9.370;2023-08-06T03:06:45;14.20;99.90
4602;DHT22;2313;48.552;9.370;2023-08-06T03:09:11;14.30;99.90
4602;DHT22;2313;48.552;9.370;2023-08-06T03:11:36;14.30;99.90
4602;DHT22;2313;48.552;9.370;2023-08-06T03:14:02;14.20;99.90
4602;DHT22;2313;48.552;9.370;2023-08-06T03:16:27;14.30;99.90
4602;DHT22;2313;48.552;9.370;2023-08-06T03:18:53;14.30;99.90
4602;DHT22;2313;48.552;9.370;2023-08-06T03:21:18;14.40;99.90
4602;DHT22;2313;48.552;9.370;2023-08-06T03:23:47;14.40;99.90
4602;DHT22;2313;48.552;9.370;2023-08-06T03:26:13;14.40;99.90
4602;DHT22;2313;48.552;9.370;2023-08-06T03:28:38;14.50;99.90
4602;DHT22;2313;48.552;9.370;2023-08-06T03:31:04;14.50;99.90
4602;DHT22;2313;48.552;9.370;2023-08-06T03:33:30;14.50;99.90
4602;DHT22;2313;48.552;9.370;2023-08-06T03:35:56;14.60;99.90
4602;DHT22;2313;48.552;9.370;2023-08-06T03:38:22;14.60;99.90
4602;DHT22;2313;48.552;9.370;2023-08-06T03:40:48;14.70;99.90
4602;DHT22;2313;48.552;9.370;2023-08-06T03:43:14;14.70;99.90
4602;DHT22;2313;48.552;9.370;2023-08-06T03:45:40;14.70;99.90
4602;DHT22;2313;48.552;9.370;2023-08-06T03:48:06;14.80;99.90
4602;DHT22;2313;48.552;9.370;2023-08-06T03:50:31;14.80;99.90
4602;DHT22;2313;48.552;9.370;2023-08-06T03:52:57;14.80;99.90
4602;DHT22;2313;48.552;9.370;2023-08-06T03:55:23;14.80;99.90
4602;DHT22;2313;48.552;9.370;2023-08-06T03:57:48;14.80;99.90
4602;DHT22;2313;48.552;9.370;2023-08-06T04:00:14;14.90;99.90
4602;DHT22;2313;48.552;9.370;2023-08-06T04:02:39;14.90;99.90
4602;DHT22;2313;48.552;9.370;2023-08-06T04:05:05;14.90;99.90
4602;DHT22;2313;48.552;9.370;2023-08-06T04:07:31;14.90;99.90
4602;DHT22;2313;48.552;9.370;2023-08-06T04:10:04;14.80;99.90
4602;DHT22;2313;48.552;9.370;2023-08-06T04:12:30;14.90;99.90
4602;DHT22;2313;48.552;9.370;2023-08-06T04:15:00;14.90;99.90
4602;DHT22;2313;48.552;9.370;2023-08-06T04:17:26;14.90;99.90
4602;DHT22;2313;48.552;9.370;2023-08-06T04:19:54;15.00;99.90
4602;DHT22;2313;48.552;9.370;2023-08-06T04:22:20;15.00;99.90
4602;DHT22;2313;48.552;9.370;2023-08-06T04:24:46;15.00;99.90
4602;DHT22;2313;48.552;9.370;2023-08-06T04:27:12;14.90;99.90
4602;DHT22;2313;48.552;9.370;2023-08-06T04:29:38;14.90;99.90
4602;DHT22;2313;48.552;9.370;2023-08-06T04:32:06;14.80;99.90
4602;DHT22;2313;48.552;9.370;2023-08-06T04:34:32;14.70;99.90
4602;DHT22;2313;48.552;9.370;2023-08-06T04:36:58;14.60;99.90
4602;DHT22;2313;48.552;9.370;2023-08-06T04:39:23;14.60;99.90
4602;DHT22;2313;48.552;9.370;2023-08-06T04:41:49;14.60;99.90
4602;DHT22;2313;48.552;9.370;2023-08-06T04:44:14;14.60;99.90
4602;DHT22;2313;48.552;9.370;2023-08-06T04:46:40;14.60;99.90
4602;DHT22;2313;48.552;9.370;2023-08-06T04:49:06;14.60;99.90
4602;DHT22;2313;48.552;9.370;2023-08-06T04:51:31;14.60;99.90
4602;DHT22;2313;48.552;9.370;2023-08-06T04:53:57;14.60;99.90
4602;DHT22;2313;48.552;9.370;2023-08-06T04:56:23;14.60;99.90
4602;DHT22;2313;48.552;9.370;2023-08-06T04:58:48;14.60;99.90
4602;DHT22;2313;48.552;9.370;2023-08-06T05:01:14;14.50;99.90
4602;DHT22;2313;48.552;9.370;2023-08-06T05:03:40;14.60;99.90
4602;DHT22;2313;48.552;9.370;2023-08-06T05:06:05;14.50;99.90
4602;DHT22;2313;48.552;9.370;2023-08-06T05:08:31;14.50;99.90
4602;DHT22;2313;48.552;9.370;2023-08-06T05:10:56;14.50;99.90
4602;DHT22;2313;48.552;9.370;2023-08-06T05:13:22;14.50;99.90
4602;DHT22;2313;48.552;9.370;2023-08-06T05:15:47;14.50;99.90
4602;DHT22;2313;48.552;9.370;2023-08-06T05:18:13;14.50;99.90
4602;DHT22;2313;48.552;9.370;2023-08-06T05:20:40;14.40;99.90
4602;DHT22;2313;48.552;9.370;2023-08-06T05:23:06;14.40;99.90
4602;DHT22;2313;48.552;9.370;2023-08-06T05:25:31;14.40;99.90
4602;DHT22;2313;48.552;9.370;2023-08-06T05:27:57;14.50;99.90
4602;DHT22;2313;48.552;9.370;2023-08-06T05:30:22;14.40;99.90
4602;DHT22;2313;48.552;9.370;2023-08-06T05:32:48;14.40;99.90
4602;DHT22;2313;48.552;9.370;2023-08-06T05:35:13;14.50;99.90
4602;DHT22;2313;48.552;9.370;2023-08-06T05:37:39;14.50;99.90
4602;DHT22;2313;48.552;9.370;2023-08-06T05:40:05;14.60;99.90
4602;DHT22;2313;48.552;9.370;2023-08-06T05:42:31;14.60;99.90
4602;DHT22;2313;48.552;9.370;2023-08-06T05:44:56;14.60;99.90
4602;DHT22;2313;48.552;9.370;2023-08-06T05:47:22;14.70;99.90
4602;DHT22;2313;48.552;9.370;2023-08-06T05:49:47;14.80;99.90
4602;DHT22;2313;48.552;9.370;2023-08-06T05:52:13;14.90;99.90
4602;DHT22;2313;48.552;9.370;2023-08-06T05:54:38;15.00;99.90
4602;DHT22;2313;48.552;9.370;2023-08-06T05:57:06;15.20;99.90
4602;DHT22;2313;48.552;9.370;2023-08-06T05:59:31;15.20;99.90
4602;DHT22;2313;48.552;9.370;2023-08-06T06:01:57;15.30;99.90
4602;DHT22;2313;48.552;9.370;2023-08-06T06:04:22;15.20;99.90
4602;DHT22;2313;48.552;9.370;2023-08-06T06:06:48;15.20;99.90
4602;DHT22;2313;48.552;9.370;2023-08-06T06:09:13;15.20;99.90
4602;DHT22;2313;48.552;9.370;2023-08-06T06:11:39;15.10;99.90
4602;DHT22;2313;48.552;9.370;2023-08-06T06:14:05;15.10;99.90
4602;DHT22;2313;48.552;9.370;2023-08-06T06:16:30;15.00;99.90
4602;DHT22;2313;48.552;9.370;2023-08-06T06:18:56;15.00;99.90
4602;DHT22;2313;48.552;9.370;2023-08-06T06:21:23;15.00;99.90
4602;DHT22;2313;48.552;9.370;2023-08-06T06:23:49;15.00;99.90
4602;DHT22;2313;48.552;9.370;2023-08-06T06:26:17;15.00;99.90
4602;DHT22;2313;48.552;9.370;2023-08-06T06:28:42;15.00;99.90
4602;DHT22;2313;48.552;9.370;2023-08-06T06:31:08;15.00;99.90
4602;DHT22;2313;48.552;9.370;2023-08-06T06:33:34;15.00;99.90
4602;DHT22;2313;48.552;9.370;2023-08-06T06:36:00;15.00;99.90
4602;DHT22;2313;48.552;9.370;2023-08-06T06:38:26;14.90;99.90
4602;DHT22;2313;48.552;9.370;2023-08-06T06:40:55;14.90;99.90
4602;DHT22;2313;48.552;9.370;2023-08-06T06:43:21;14.90;99.90
4602;DHT22;2313;48.552;9.370;2023-08-06T06:45:47;14.90;99.90
4602;DHT22;2313;48.552;9.370;2023-08-06T06:48:12;14.90;99.90
4602;DHT22;2313;48.552;9.370;2023-08-06T06:50:38;14.90;99.90
4602;DHT22;2313;48.552;9.370;2023-08-06T06:53:04;15.00;99.90
4602;DHT22;2313;48.552;9.370;2023-08-06T06:55:30;14.90;99.90
4602;DHT22;2313;48.552;9.370;2023-08-06T06:57:55;14.90;99.90
4602;DHT22;2313;48.552;9.370;2023-08-06T07:00:21;14.90;99.90
4602;DHT22;2313;48.552;9.370;2023-08-06T07:02:47;14.90;99.90
4602;DHT22;2313;48.552;9.370;2023-08-06T07:05:12;14.90;99.90
4602;DHT22;2313;48.552;9.370;2023-08-06T07:07:38;14.90;99.90
4602;DHT22;2313;48.552;9.370;2023-08-06T07:10:07;15.00;99.90
4602;DHT22;2313;48.552;9.370;2023-08-06T07:12:33;15.00;99.90
4602;DHT22;2313;48.552;9.370;2023-08-06T07:14:59;14.90;99.90
4602;DHT22;2313;48.552;9.370;2023-08-06T07:17:24;14.70;99.90
4602;DHT22;2313;48.552;9.370;2023-08-06T07:19:50;14.70;99.90
4602;DHT22;2313;48.552;9.370;2023-08-06T07:22:15;14.90;99.90
4602;DHT22;2313;48.552;9.370;2023-08-06T07:24:41;14.90;99.90
4602;DHT22;2313;48.552;9.370;2023-08-06T07:27:06;15.00;99.90
4602;DHT22;2313;48.552;9.370;2023-08-06T07:29:32;15.00;99.90
4602;DHT22;2313;48.552;9.370;2023-08-06T07:31:58;15.10;99.90
4602;DHT22;2313;48.552;9.370;2023-08-06T07:34:23;15.10;99.90
4602;DHT22;2313;48.552;9.370;2023-08-06T07:36:49;15.20;99.90
4602;DHT22;2313;48.552;9.370;2023-08-06T07:39:14;15.20;99.90
4602;DHT22;2313;48.552;9.370;2023-08-06T07:41:42;15.20;99.90
4602;DHT22;2313;48.552;9.370;2023-08-06T07:44:07;15.00;99.90
4602;DHT22;2313;48.552;9.370;2023-08-06T07:46:33;15.00;99.90
4602;DHT22;2313;48.552;9.370;2023-08-06T07:48:58;15.00;99.90
4602;DHT22;2313;48.552;9.370;2023-08-06T07:51:27;15.10;99.90
4602;DHT22;2313;48.552;9.370;2023-08-06T07:53:52;14.90;99.90
4602;DHT22;2313;48.552;9.370;2023-08-06T07:56:18;14.80;99.90
4602;DHT22;2313;48.552;9.370;2023-08-06T07:58:44;14.70;99.90
4602;DHT22;2313;48.552;9.370;2023-08-06T08:01:09;14.70;99.90
4602;DHT22;2313;48.552;9.370;2023-08-06T08:03:35;14.80;99.90
4602;DHT22;2313;48.552;9.370;2023-08-06T08:06:00;14.70;99.90
4602;DHT22;2313;48.552;9.370;2023-08-06T08:08:26;14.70;99.90
4602;DHT22;2313;48.552;9.370;2023-08-06T08:10:52;14.80;99.90
4602;DHT22;2313;48.552;9.370;2023-08-06T08:13:18;14.80;99.90
4602;DHT22;2313;48.552;9.370;2023-08-06T08:15:43;14.90;99.90
4602;DHT22;2313;48.552;9.370;2023-08-06T08:18:09;14.90;99.90
4602;DHT22;2313;48.552;9.370;2023-08-06T08:20:34;14.90;99.90
4602;DHT22;2313;48.552;9.370;2023-08-06T08:23:01;14.80;99.90
4602;DHT22;2313;48.552;9.370;2023-08-06T08:25:27;14.90;99.90
4602;DHT22;2313;48.552;9.370;2023-08-06T08:27:54;14.90;99.90
4602;DHT22;2313;48.552;9.370;2023-08-06T08:30:20;15.00;99.90
4602;DHT22;2313;48.552;9.370;2023-08-06T08:32:46;15.10;99.90
4602;DHT22;2313;48.552;9.370;2023-08-06T08:35:12;15.10;99.90
4602;DHT22;2313;48.552;9.370;2023-08-06T08:37:38;15.10;99.90
4602;DHT22;2313;48.552;9.370;2023-08-06T08:40:06;15.10;99.90
4602;DHT22;2313;48.552;9.370;2023-08-06T08:42:32;15.10;99.90
4602;DHT22;2313;48.552;9.370;2023-08-06T08:44:57;15.10;99.90
4602;DHT22;2313;48.552;9.370;2023-08-06T08:47:24;15.00;99.90
4602;DHT22;2313;48.552;9.370;2023-08-06T08:49:53;14.90;99.90
4602;DHT22;2313;48.552;9.370;2023-08-06T08:52:20;15.00;99.90
4602;DHT22;2313;48.552;9.370;2023-08-06T08:54:47;14.90;99.90
4602;DHT22;2313;48.552;9.370;2023-08-06T08:57:20;15.00;99.90
4602;DHT22;2313;48.552;9.370;2023-08-06T08:59:46;15.10;99.90
4602;DHT22;2313;48.552;9.370;2023-08-06T09:02:13;15.10;99.90
4602;DHT22;2313;48.552;9.370;2023-08-06T09:04:41;15.00;99.90
4602;DHT22;2313;48.552;9.370;2023-08-06T09:07:08;14.90;99.90
4602;DHT22;2313;48.552;9.370;2023-08-06T09:09:35;14.90;99.90
4602;DHT22;2313;48.552;9.370;2023-08-06T09:12:19;14.90;99.90
4602;DHT22;2313;48.552;9.370;2023-08-06T09:14:44;14.90;99.90
4602;DHT22;2313;48.552;9.370;2023-08-06T09:17:10;14.80;99.90
4602;DHT22;2313;48.552;9.370;2023-08-06T09:19:36;14.90;99.90
4602;DHT22;2313;48.552;9.370;2023-08-06T09:22:02;14.80;99.90
4602;DHT22;2313;48.552;9.370;2023-08-06T09:24:28;14.80;99.90
4602;DHT22;2313;48.552;9.370;2023-08-06T09:26:54;14.80;99.90
4602;DHT22;2313;48.552;9.370;2023-08-06T09:29:20;14.90;99.90
4602;DHT22;2313;48.552;9.370;2023-08-06T09:31:50;14.90;99.90
4602;DHT22;2313;48.552;9.370;2023-08-06T09:34:19;14.70;99.90
4602;DHT22;2313;48.552;9.370;2023-08-06T09:36:50;14.80;99.90
4602;DHT22;2313;48.552;9.370;2023-08-06T09:39:26;14.90;99.90
4602;DHT22;2313;48.552;9.370;2023-08-06T09:41:59;15.00;99.90
4602;DHT22;2313;48.552;9.370;2023-08-06T09:44:27;14.90;99.90
4602;DHT22;2313;48.552;9.370;2023-08-06T09:47:00;15.00;99.90
4602;DHT22;2313;48.552;9.370;2023-08-06T09:51:58;15.10;99.90
4602;DHT22;2313;48.552;9.370;2023-08-06T09:54:25;15.20;99.90
4602;DHT22;2313;48.552;9.370;2023-08-06T09:56:53;15.20;99.90
4602;DHT22;2313;48.552;9.370;2023-08-06T09:59:19;15.10;99.90
4602;DHT22;2313;48.552;9.370;2023-08-06T10:01:45;15.10;99.90
4602;DHT22;2313;48.552;9.370;2023-08-06T10:04:14;15.10;99.90
4602;DHT22;2313;48.552;9.370;2023-08-06T10:06:42;15.10;99.90
4602;DHT22;2313;48.552;9.370;2023-08-06T10:09:08;15.10;99.90
4602;DHT22;2313;48.552;9.370;2023-08-06T10:11:36;15.00;99.90
4602;DHT22;2313;48.552;9.370;2023-08-06T10:14:28;15.00;99.90
4602;DHT22;2313;48.552;9.370;2023-08-06T10:16:57;15.00;99.90
4602;DHT22;2313;48.552;9.370;2023-08-06T10:19:25;15.00;99.90
4602;DHT22;2313;48.552;9.370;2023-08-06T10:22:10;14.90;99.90
4602;DHT22;2313;48.552;9.370;2023-08-06T10:25:05;14.80;99.90
4602;DHT22;2313;48.552;9.370;2023-08-06T10:27:40;14.60;99.90
4602;DHT22;2313;48.552;9.370;2023-08-06T10:30:31;14.50;99.90
4602;DHT22;2313;48.552;9.370;2023-08-06T10:32:58;14.40;99.90
4602;DHT22;2313;48.552;9.370;2023-08-06T10:35:48;14.40;99.90
4602;DHT22;2313;48.552;9.370;2023-08-06T10:38:20;14.50;99.90
4602;DHT22;2313;48.552;9.370;2023-08-06T10:43:36;14.50;99.90
4602;DHT22;2313;48.552;9.370;2023-08-06T10:46:27;14.60;99.90
4602;DHT22;2313;48.552;9.370;2023-08-06T10:48:53;14.60;99.90
4602;DHT22;2313;48.552;9.370;2023-08-06T10:51:19;14.70;99.90
4602;DHT22;2313;48.552;9.370;2023-08-06T10:53:46;14.70;99.90
4602;DHT22;2313;48.552;9.370;2023-08-06T10:56:20;14.70;99.90
4602;DHT22;2313;48.552;9.370;2023-08-06T10:58:48;14.70;99.90
4602;DHT22;2313;48.552;9.370;2023-08-06T11:01:14;14.70;99.90
4602;DHT22;2313;48.552;9.370;2023-08-06T11:03:42;14.70;99.90
4602;DHT22;2313;48.552;9.370;2023-08-06T11:06:08;14.70;99.90
4602;DHT22;2313;48.552;9.370;2023-08-06T11:08:36;14.60;99.90
4602;DHT22;2313;48.552;9.370;2023-08-06T11:11:09;14.60;99.90
4602;DHT22;2313;48.552;9.370;2023-08-06T11:13:37;14.60;99.90
4602;DHT22;2313;48.552;9.370;2023-08-06T11:16:04;14.70;99.90
4602;DHT22;2313;48.552;9.370;2023-08-06T11:18:30;14.60;99.90
4602;DHT22;2313;48.552;9.370;2023-08-06T11:20:59;14.60;99.90
4602;DHT22;2313;48.552;9.370;2023-08-06T11:23:29;14.60;99.90
4602;DHT22;2313;48.552;9.370;2023-08-06T11:25:56;14.50;99.90
4602;DHT22;2313;48.552;9.370;2023-08-06T11:28:21;14.50;99.90
4602;DHT22;2313;48.552;9.370;2023-08-06T11:30:48;14.50;99.90
4602;DHT22;2313;48.552;9.370;2023-08-06T11:33:14;14.60;99.90
4602;DHT22;2313;48.552;9.370;2023-08-06T11:35:40;14.60;99.90
4602;DHT22;2313;48.552;9.370;2023-08-06T11:38:06;14.50;99.90
4602;DHT22;2313;48.552;9.370;2023-08-06T11:40:32;14.60;99.90
4602;DHT22;2313;48.552;9.370;2023-08-06T11:42:58;14.60;99.90
4602;DHT22;2313;48.552;9.370;2023-08-06T11:45:24;14.70;99.90
4602;DHT22;2313;48.552;9.370;2023-08-06T11:47:51;14.60;99.90
4602;DHT22;2313;48.552;9.370;2023-08-06T11:50:26;14.70;99.90
4602;DHT22;2313;48.552;9.370;2023-08-06T11:53:00;14.70;99.90
4602;DHT22;2313;48.552;9.370;2023-08-06T11:55:27;14.80;99.90
4602;DHT22;2313;48.552;9.370;2023-08-06T11:57:54;14.90;99.90
4602;DHT22;2313;48.552;9.370;2023-08-06T12:00:20;14.70;99.90
4602;DHT22;2313;48.552;9.370;2023-08-06T12:02:48;14.80;99.90
4602;DHT22;2313;48.552;9.370;2023-08-06T12:05:16;14.80;99.90
4602;DHT22;2313;48.552;9.370;2023-08-06T12:07:44;14.90;99.90
4602;DHT22;2313;48.552;9.370;2023-08-06T12:10:11;15.00;99.90
4602;DHT22;2313;48.552;9.370;2023-08-06T12:12:37;15.00;99.90
4602;DHT22;2313;48.552;9.370;2023-08-06T12:15:04;15.00;99.90
4602;DHT22;2313;48.552;9.370;2023-08-06T12:17:32;15.10;99.90
4602;DHT22;2313;48.552;9.370;2023-08-06T12:19:57;15.10;99.90
4602;DHT22;2313;48.552;9.370;2023-08-06T12:22:23;15.10;99.90
4602;DHT22;2313;48.552;9.370;2023-08-06T12:24:49;15.10;99.90
4602;DHT22;2313;48.552;9.370;2023-08-06T12:27:15;15.10;99.90
4602;DHT22;2313;48.552;9.370;2023-08-06T12:29:47;15.10;99.90
4602;DHT22;2313;48.552;9.370;2023-08-06T12:32:13;15.10;99.90
4602;DHT22;2313;48.552;9.370;2023-08-06T12:34:40;15.10;99.90
4602;DHT22;2313;48.552;9.370;2023-08-06T12:37:06;15.00;99.90
4602;DHT22;2313;48.552;9.370;2023-08-06T12:39:34;15.00;99.90
4602;DHT22;2313;48.552;9.370;2023-08-06T12:42:05;15.00;99.90
4602;DHT22;2313;48.552;9.370;2023-08-06T12:44:31;15.00;99.90
4602;DHT22;2313;48.552;9.370;2023-08-06T12:46:57;14.90;99.90
4602;DHT22;2313;48.552;9.370;2023-08-06T12:49:23;15.00;99.90
4602;DHT22;2313;48.552;9.370;2023-08-06T12:51:50;15.10;99.90
4602;DHT22;2313;48.552;9.370;2023-08-06T12:54:20;15.10;99.90
4602;DHT22;2313;48.552;9.370;2023-08-06T12:56:46;15.10;99.90
4602;DHT22;2313;48.552;9.370;2023-08-06T12:59:15;15.10;99.90
4602;DHT22;2313;48.552;9.370;2023-08-06T13:01:41;15.10;99.90
4602;DHT22;2313;48.552;9.370;2023-08-06T13:04:07;15.10;99.90
4602;DHT22;2313;48.552;9.370;2023-08-06T13:06:33;15.10;99.90
4602;DHT22;2313;48.552;9.370;2023-08-06T13:09:06;15.10;99.90
4602;DHT22;2313;48.552;9.370;2023-08-06T13:11:33;15.20;99.90
4602;DHT22;2313;48.552;9.370;2023-08-06T13:14:10;15.30;99.90
4602;DHT22;2313;48.552;9.370;2023-08-06T13:16:37;15.30;99.90
4602;DHT22;2313;48.552;9.370;2023-08-06T13:19:04;15.20;99.90
4602;DHT22;2313;48.552;9.370;2023-08-06T13:21:34;15.10;99.90
4602;DHT22;2313;48.552;9.370;2023-08-06T13:24:01;15.20;99.90
4602;DHT22;2313;48.552;9.370;2023-08-06T13:26:31;15.30;99.90
4602;DHT22;2313;48.552;9.370;2023-08-06T13:29:00;15.30;99.90
4602;DHT22;2313;48.552;9.370;2023-08-06T13:31:26;15.40;99.90
4602;DHT22;2313;48.552;9.370;2023-08-06T13:33:56;15.60;99.90
4602;DHT22;2313;48.552;9.370;2023-08-06T13:36:23;15.80;99.90
4602;DHT22;2313;48.552;9.370;2023-08-06T13:38:49;15.90;99.90
4602;DHT22;2313;48.552;9.370;2023-08-06T13:41:15;16.10;99.90
4602;DHT22;2313;48.552;9.370;2023-08-06T13:43:41;16.10;99.90
4602;DHT22;2313;48.552;9.370;2023-08-06T13:46:06;16.20;99.90
4602;DHT22;2313;48.552;9.370;2023-08-06T13:48:32;16.20;99.90
4602;DHT22;2313;48.552;9.370;2023-08-06T13:50:58;16.20;99.90
4602;DHT22;2313;48.552;9.370;2023-08-06T13:53:24;16.20;99.90
4602;DHT22;2313;48.552;9.370;2023-08-06T13:55:55;16.10;99.90
4602;DHT22;2313;48.552;9.370;2023-08-06T13:58:22;16.00;99.90
4602;DHT22;2313;48.552;9.370;2023-08-06T14:00:47;16.20;99.90
4602;DHT22;2313;48.552;9.370;2023-08-06T14:03:13;16.20;99.90
4602;DHT22;2313;48.552;9.370;2023-08-06T14:05:38;16.30;99.90
4602;DHT22;2313;48.552;9.370;2023-08-06T14:08:04;16.30;99.90
4602;DHT22;2313;48.552;9.370;2023-08-06T14:10:30;16.10;99.90
4602;DHT22;2313;48.552;9.370;2023-08-06T14:12:55;16.00;99.90
4602;DHT22;2313;48.552;9.370;2023-08-06T14:15:21;15.90;99.90
4602;DHT22;2313;48.552;9.370;2023-08-06T14:17:47;15.80;99.90
4602;DHT22;2313;48.552;9.370;2023-08-06T14:20:12;15.70;99.90
4602;DHT22;2313;48.552;9.370;2023-08-06T14:22:38;15.60;99.90
4602;DHT22;2313;48.552;9.370;2023-08-06T14:25:04;15.50;99.90
4602;DHT22;2313;48.552;9.370;2023-08-06T14:27:30;15.40;99.90
4602;DHT22;2313;48.552;9.370;2023-08-06T14:29:55;15.50;99.90
4602;DHT22;2313;48.552;9.370;2023-08-06T14:32:21;15.60;99.90
4602;DHT22;2313;48.552;9.370;2023-08-06T14:34:47;15.60;99.90
4602;DHT22;2313;48.552;9.370;2023-08-06T14:37:12;15.60;99.90
4602;DHT22;2313;48.552;9.370;2023-08-06T14:39:38;15.60;99.90
4602;DHT22;2313;48.552;9.370;2023-08-06T14:42:04;15.70;99.90
4602;DHT22;2313;48.552;9.370;2023-08-06T14:44:30;15.70;99.90
4602;DHT22;2313;48.552;9.370;2023-08-06T14:46:56;15.70;99.90
4602;DHT22;2313;48.552;9.370;2023-08-06T14:49:21;15.60;99.90
4602;DHT22;2313;48.552;9.370;2023-08-06T14:51:47;15.40;99.90
4602;DHT22;2313;48.552;9.370;2023-08-06T14:54:13;15.30;99.90
4602;DHT22;2313;48.552;9.370;2023-08-06T14:56:38;15.00;99.90
4602;DHT22;2313;48.552;9.370;2023-08-06T14:59:04;14.80;99.90
4602;DHT22;2313;48.552;9.370;2023-08-06T15:01:30;14.60;99.90
4602;DHT22;2313;48.552;9.370;2023-08-06T15:03:55;14.60;99.90
4602;DHT22;2313;48.552;9.370;2023-08-06T15:06:21;14.50;99.90
4602;DHT22;2313;48.552;9.370;2023-08-06T15:08:46;14.40;99.90
4602;DHT22;2313;48.552;9.370;2023-08-06T15:11:13;14.40;99.90
4602;DHT22;2313;48.552;9.370;2023-08-06T15:13:40;14.40;99.90
4602;DHT22;2313;48.552;9.370;2023-08-06T15:16:05;14.40;99.90
4602;DHT22;2313;48.552;9.370;2023-08-06T15:18:31;14.40;99.90
4602;DHT22;2313;48.552;9.370;2023-08-06T15:20:57;14.50;99.90
4602;DHT22;2313;48.552;9.370;2023-08-06T15:23:25;14.50;99.90
4602;DHT22;2313;48.552;9.370;2023-08-06T15:25:51;14.50;99.90
4602;DHT22;2313;48.552;9.370;2023-08-06T15:28:16;14.50;99.90
4602;DHT22;2313;48.552;9.370;2023-08-06T15:30:49;14.50;99.90
4602;DHT22;2313;48.552;9.370;2023-08-06T15:33:15;14.50;99.90
4602;DHT22;2313;48.552;9.370;2023-08-06T15:35:41;14.50;99.90
4602;DHT22;2313;48.552;9.370;2023-08-06T15:38:06;14.40;99.90
4602;DHT22;2313;48.552;9.370;2023-08-06T15:40:32;14.40;99.90
4602;DHT22;2313;48.552;9.370;2023-08-06T15:42:58;14.40;99.90
4602;DHT22;2313;48.552;9.370;2023-08-06T15:45:23;14.40;99.90
4602;DHT22;2313;48.552;9.370;2023-08-06T15:47:49;14.50;99.90
4602;DHT22;2313;48.552;9.370;2023-08-06T15:50:14;14.50;99.90
4602;DHT22;2313;48.552;9.370;2023-08-06T15:52:40;14.60;99.90
4602;DHT22;2313;48.552;9.370;2023-08-06T15:55:06;14.70;99.90
4602;DHT22;2313;48.552;9.370;2023-08-06T15:57:33;14.80;99.90
4602;DHT22;2313;48.552;9.370;2023-08-06T15:59:58;15.00;99.90
4602;DHT22;2313;48.552;9.370;2023-08-06T16:02:24;15.10;99.90
4602;DHT22;2313;48.552;9.370;2023-08-06T16:04:50;15.10;99.90
4602;DHT22;2313;48.552;9.370;2023-08-06T16:07:16;15.20;99.90